Time;durP1;ratioP1;P1;durP2;ratioP2;P2;SDS_P1;SDS_P2;PMS_P1;PMS_P2;Temp;Humidity;BMP_temperature;BMP_pressure;BME280_temperature;BME280_humidity;BME280_pressure;Samples;Min_cycle;Max_cycle;Signal;HPM_P1;HPM_P2
2022/04/28 00:01:04;;;;;;;4.50;3.73;;;14.20;99.90;;;;;;5057407;28;20515;-77
2022/04/28 00:03:33;;;;;;;5.30;4.60;;;14.20;99.90;;;;;;5062158;28;20469;-76
2022/04/28 00:06:01;;;;;;;4.13;3.73;;;14.20;99.90;;;;;;5053797;28;20465;-77
2022/04/28 00:08:31;;;;;;;4.77;3.33;;;14.10;99.90;;;;;;5057376;28;20482;-77
2022/04/28 00:11:00;;;;;;;4.20;3.70;;;14.20;99.90;;;;;;5058059;28;20474;-77
2022/04/28 00:13:28;;;;;;;4.30;3.93;;;14.10;99.90;;;;;;5063464;28;21053;-77
2022/04/28 00:15:56;;;;;;;3.87;3.47;;;14.10;99.90;;;;;;5059484;28;20813;-77
2022/04/28 00:18:24;;;;;;;3.53;3.23;;;14.10;99.90;;;;;;5060465;28;20496;-76
2022/04/28 00:20:52;;;;;;;4.43;4.00;;;14.10;99.90;;;;;;5059286;28;20961;-77
2022/04/28 00:23:21;;;;;;;4.60;3.60;;;14.10;99.90;;;;;;5060652;28;20515;-77
2022/04/28 00:25:50;;;;;;;5.47;3.67;;;14.00;99.90;;;;;;5067300;28;20462;-76
2022/04/28 00:28:20;;;;;;;5.77;4.83;;;14.00;99.90;;;;;;5059002;28;21349;-77
2022/04/28 00:30:49;;;;;;;4.03;3.50;;;14.00;99.90;;;;;;5057456;28;20497;-76
2022/04/28 00:33:17;;;;;;;4.40;4.10;;;14.00;99.90;;;;;;5057344;28;20458;-76
2022/04/28 00:35:45;;;;;;;4.07;3.77;;;14.00;99.90;;;;;;5058657;28;20450;-77
2022/04/28 00:38:14;;;;;;;4.30;3.90;;;14.00;99.90;;;;;;5056895;28;20453;-75
2022/04/28 00:40:42;;;;;;;4.70;3.93;;;14.00;99.90;;;;;;5062241;28;20472;-76
2022/04/28 00:43:23;;;;;;;4.77;4.10;;;13.90;99.90;;;;;;5056386;28;20458;-76
2022/04/28 00:45:52;;;;;;;5.03;4.33;;;13.90;99.90;;;;;;5056487;28;20452;-76
2022/04/28 00:51:05;;;;;;;5.07;4.33;;;13.80;99.90;;;;;;5032686;28;20547;-77
2022/04/28 00:53:42;;;;;;;6.20;3.93;;;13.70;99.90;;;;;;5090014;28;20543;-76
2022/04/28 00:56:11;;;;;;;4.03;3.53;;;13.60;99.90;;;;;;5063632;28;20447;-76
2022/04/28 00:58:41;;;;;;;3.10;2.90;;;13.60;99.90;;;;;;5063023;28;20458;-76
2022/04/28 01:01:10;;;;;;;4.07;3.10;;;13.40;99.90;;;;;;5059253;28;20459;-77
2022/04/28 01:03:38;;;;;;;4.60;3.73;;;13.30;99.90;;;;;;5060550;28;21009;-76
2022/04/28 01:06:07;;;;;;;4.77;4.40;;;13.20;99.90;;;;;;5061619;28;20481;-75
2022/04/28 01:08:35;;;;;;;4.23;3.70;;;13.20;99.90;;;;;;5062442;28;20484;-77
2022/04/28 01:11:04;;;;;;;3.90;3.33;;;13.00;99.90;;;;;;5063281;28;20850;-78
2022/04/28 01:13:32;;;;;;;3.63;3.33;;;13.00;99.90;;;;;;5063277;28;20462;-76
2022/04/28 01:16:02;;;;;;;4.83;4.43;;;13.00;99.90;;;;;;5062212;28;20477;-77
2022/04/28 01:18:30;;;;;;;4.67;3.90;;;13.00;99.90;;;;;;5064029;28;20910;-76
2022/04/28 01:21:04;;;;;;;4.73;3.57;;;13.00;99.90;;;;;;5055965;28;20456;-77
2022/04/28 01:23:32;;;;;;;4.23;3.83;;;13.00;99.90;;;;;;5059252;28;20521;-76
2022/04/28 01:26:01;;;;;;;6.00;4.37;;;13.00;99.90;;;;;;5060092;28;20509;-77
2022/04/28 01:28:31;;;;;;;4.37;3.97;;;12.90;99.90;;;;;;5062975;28;20992;-76
2022/04/28 01:31:00;;;;;;;4.90;4.37;;;12.90;99.90;;;;;;5062778;28;20879;-77
2022/04/28 01:33:28;;;;;;;4.50;4.17;;;12.80;99.90;;;;;;5062528;28;20574;-76
2022/04/28 01:35:56;;;;;;;4.40;3.80;;;12.80;99.90;;;;;;5062022;28;20453;-76
2022/04/28 01:38:26;;;;;;;3.90;3.50;;;12.70;99.90;;;;;;5061593;28;20540;-76
2022/04/28 01:40:54;;;;;;;3.83;3.50;;;12.70;99.90;;;;;;5060609;28;20555;-76
2022/04/28 01:43:23;;;;;;;4.50;3.50;;;12.70;99.90;;;;;;5061569;28;20482;-74
2022/04/28 01:45:51;;;;;;;4.43;4.00;;;12.70;99.90;;;;;;5062175;28;21121;-76
2022/04/28 01:48:19;;;;;;;3.70;3.40;;;12.70;99.90;;;;;;5059708;28;20459;-76
2022/04/28 01:56:16;;;;;;;3.60;3.30;;;12.60;99.90;;;;;;5051993;28;20516;-76
2022/04/28 01:58:44;;;;;;;6.77;4.03;;;12.50;99.90;;;;;;5057437;28;20508;-76
2022/04/28 02:01:13;;;;;;;5.20;4.00;;;12.50;99.90;;;;;;5057931;28;20814;-75
2022/04/28 02:03:41;;;;;;;6.17;4.37;;;12.30;99.90;;;;;;5059421;28;20461;-76
2022/04/28 02:06:09;;;;;;;4.40;3.60;;;12.20;99.90;;;;;;5061237;28;20455;-76
2022/04/28 02:08:40;;;;;;;4.23;3.83;;;12.30;99.90;;;;;;5061214;28;20458;-76
2022/04/28 02:11:09;;;;;;;4.40;3.93;;;12.20;99.90;;;;;;5059315;28;20463;-76
2022/04/28 02:13:37;;;;;;;4.77;4.03;;;12.20;99.90;;;;;;5061232;28;20450;-76
2022/04/28 02:16:05;;;;;;;5.40;4.47;;;12.20;99.90;;;;;;5057857;28;20534;-77
2022/04/28 02:18:34;;;;;;;5.57;4.40;;;12.30;99.90;;;;;;5062087;28;20509;-77
2022/04/28 02:21:02;;;;;;;6.33;4.87;;;12.30;99.90;;;;;;5060014;28;20447;-77
2022/04/28 02:23:30;;;;;;;5.23;4.73;;;12.40;99.90;;;;;;5062738;28;20458;-77
2022/04/28 02:26:00;;;;;;;5.93;4.37;;;12.50;99.90;;;;;;5058691;28;20458;-75
2022/04/28 02:28:29;;;;;;;4.70;4.17;;;12.50;99.90;;;;;;5057946;28;20462;-76
2022/04/28 02:30:57;;;;;;;7.30;3.40;;;12.60;99.90;;;;;;5061006;28;20481;-77
2022/04/28 02:33:25;;;;;;;5.20;4.50;;;12.60;99.90;;;;;;5065124;28;20463;-75
2022/04/28 02:35:53;;;;;;;4.10;3.70;;;12.50;99.90;;;;;;5065634;28;20467;-76
2022/04/28 02:38:21;;;;;;;5.27;4.17;;;12.40;99.90;;;;;;5061662;28;20467;-76
2022/04/28 02:40:50;;;;;;;5.57;4.13;;;12.20;99.90;;;;;;5062207;28;20476;-77
2022/04/28 02:43:20;;;;;;;5.40;3.80;;;12.20;99.90;;;;;;5060401;28;20493;-77
2022/04/28 02:45:49;;;;;;;4.10;3.70;;;12.00;99.90;;;;;;5057758;28;21019;-77
2022/04/28 02:48:17;;;;;;;5.67;4.00;;;12.10;99.90;;;;;;5060948;28;21001;-76
2022/04/28 02:50:46;;;;;;;4.47;3.67;;;11.90;99.90;;;;;;5059494;28;20484;-76
2022/04/28 02:53:14;;;;;;;3.87;3.50;;;11.80;99.90;;;;;;5064334;28;20493;-76
2022/04/28 02:55:43;;;;;;;8.70;4.00;;;11.80;99.90;;;;;;5061608;28;20463;-75
2022/04/28 02:58:11;;;;;;;4.10;3.60;;;11.70;99.90;;;;;;5065989;28;20451;-77
2022/04/28 03:00:41;;;;;;;4.90;4.40;;;11.70;99.90;;;;;;5059205;28;20479;-77
2022/04/28 03:03:10;;;;;;;8.07;3.63;;;11.70;99.90;;;;;;5060829;28;20457;-77
2022/04/28 03:11:06;;;;;;;4.10;3.80;;;11.50;99.90;;;;;;5059818;28;20997;-77
2022/04/28 03:13:34;;;;;;;3.90;3.47;;;11.50;99.90;;;;;;5062358;28;21317;-76
2022/04/28 03:16:04;;;;;;;4.37;3.13;;;11.60;99.90;;;;;;5065033;28;20578;-75
2022/04/28 03:18:33;;;;;;;4.07;3.43;;;11.60;99.90;;;;;;5062812;28;20458;-76
2022/04/28 03:21:01;;;;;;;7.03;4.40;;;11.50;99.90;;;;;;5055668;28;20444;-77
2022/04/28 03:23:30;;;;;;;3.40;3.03;;;11.30;99.90;;;;;;5061100;28;21032;-77
2022/04/28 03:25:58;;;;;;;5.40;3.90;;;11.30;99.90;;;;;;5061328;28;20464;-77
2022/04/28 03:28:26;;;;;;;4.00;3.60;;;11.30;99.90;;;;;;5068331;28;20463;-77
2022/04/28 03:30:54;;;;;;;4.13;3.73;;;11.30;99.90;;;;;;5057674;28;20967;-77
2022/04/28 03:33:24;;;;;;;5.37;4.27;;;11.60;98.60;;;;;;5060652;28;20482;-75
2022/04/28 03:35:52;;;;;;;5.70;3.70;;;11.30;98.70;;;;;;5060068;28;20470;-77
2022/04/28 03:38:21;;;;;;;5.03;3.40;;;11.10;98.30;;;;;;5059878;28;20448;-77
2022/04/28 03:40:49;;;;;;;4.00;3.70;;;11.10;99.30;;;;;;5091594;28;20468;-78
2022/04/28 03:43:18;;;;;;;4.47;4.13;;;11.10;99.00;;;;;;5060483;28;20537;-76
2022/04/28 03:45:46;;;;;;;3.63;3.33;;;11.10;97.80;;;;;;5059643;28;20466;-76
2022/04/28 03:48:16;;;;;;;3.93;3.57;;;11.10;99.30;;;;;;5058928;28;20494;-77
2022/04/28 03:50:45;;;;;;;3.43;2.90;;;11.10;98.80;;;;;;5059669;28;20478;-76
2022/04/28 03:53:13;;;;;;;4.13;3.67;;;11.10;99.80;;;;;;5060314;28;20518;-77
2022/04/28 03:55:42;;;;;;;4.97;4.10;;;11.00;98.80;;;;;;5059962;28;20470;-77
2022/04/28 03:58:10;;;;;;;4.20;3.80;;;10.90;97.60;;;;;;5062932;28;20455;-76
2022/04/28 04:00:38;;;;;;;4.00;3.37;;;10.90;99.90;;;;;;5061251;28;20487;-76
2022/04/28 04:03:07;;;;;;;4.13;3.10;;;11.00;99.00;;;;;;5053895;28;20710;-75
2022/04/28 04:05:35;;;;;;;3.83;3.50;;;11.10;97.40;;;;;;5060736;28;20454;-77
2022/04/28 04:08:05;;;;;;;4.57;3.83;;;11.10;97.50;;;;;;5060958;28;20451;-77
2022/04/28 04:10:33;;;;;;;5.50;4.80;;;10.90;96.90;;;;;;5059736;28;20536;-76
2022/04/28 04:13:01;;;;;;;3.60;3.20;;;11.00;97.60;;;;;;5056059;28;20474;-75
2022/04/28 04:15:30;;;;;;;5.47;4.60;;;11.00;97.40;;;;;;5059019;28;20466;-76
2022/04/28 04:17:58;;;;;;;6.33;4.67;;;11.00;97.20;;;;;;5058476;28;20546;-76
2022/04/28 04:20:27;;;;;;;7.00;4.40;;;10.90;97.80;;;;;;5057041;28;20483;-77
2022/04/28 04:22:55;;;;;;;6.43;4.50;;;10.90;96.90;;;;;;5056677;28;20448;-76
2022/04/28 04:25:25;;;;;;;5.80;4.00;;;10.80;97.10;;;;;;5055681;28;20549;-77
2022/04/28 04:27:56;;;;;;;4.77;4.30;;;10.80;96.90;;;;;;5060494;28;20455;-75
2022/04/28 04:33:11;;;;;;;5.27;4.20;;;10.70;97.70;;;;;;5053072;28;20591;-76
2022/04/28 04:35:39;;;;;;;4.57;4.17;;;10.70;98.20;;;;;;5057641;28;20441;-76
2022/04/28 04:38:07;;;;;;;4.17;3.60;;;10.80;98.40;;;;;;5058364;28;20493;-76
2022/04/28 04:40:36;;;;;;;4.47;4.07;;;10.80;98.20;;;;;;5061479;28;21434;-76
2022/04/28 04:43:09;;;;;;;5.00;3.70;;;10.80;97.80;;;;;;5059541;28;20439;-75
2022/04/28 04:45:37;;;;;;;4.23;3.70;;;10.70;98.70;;;;;;5057279;28;20451;-75
2022/04/28 04:48:06;;;;;;;4.60;4.10;;;10.70;98.50;;;;;;5057643;28;22787;-75
2022/04/28 04:50:34;;;;;;;5.33;4.10;;;10.70;98.70;;;;;;5057519;28;21197;-76
2022/04/28 04:53:04;;;;;;;6.27;4.47;;;10.70;98.90;;;;;;5054497;28;20469;-76
2022/04/28 04:55:32;;;;;;;5.23;4.83;;;10.70;99.90;;;;;;5059075;28;20462;-75
2022/04/28 04:58:02;;;;;;;6.50;4.70;;;10.70;99.90;;;;;;5058887;28;21062;-75
2022/04/28 05:00:30;;;;;;;4.13;3.47;;;10.70;99.90;;;;;;5052368;28;20475;-75
2022/04/28 05:02:58;;;;;;;7.40;4.40;;;10.70;99.90;;;;;;5056101;28;20462;-73
2022/04/28 05:05:27;;;;;;;4.83;4.13;;;10.70;99.90;;;;;;5055566;28;20493;-76
2022/04/28 05:07:55;;;;;;;5.30;4.80;;;10.70;99.90;;;;;;5060175;28;20469;-75
2022/04/28 05:10:23;;;;;;;6.70;4.50;;;10.70;99.90;;;;;;5058170;28;20476;-76
2022/04/28 05:12:51;;;;;;;6.27;5.10;;;10.70;99.90;;;;;;5060803;28;20827;-76
2022/04/28 05:15:21;;;;;;;6.10;4.67;;;10.70;99.90;;;;;;5054276;28;20446;-75
2022/04/28 05:17:49;;;;;;;5.70;5.20;;;10.80;99.90;;;;;;5052866;28;20467;-75
2022/04/28 05:20:17;;;;;;;5.63;5.00;;;10.80;99.90;;;;;;5055366;28;20481;-77
2022/04/28 05:22:45;;;;;;;6.03;5.43;;;10.80;99.90;;;;;;5055091;28;20443;-76
2022/04/28 05:25:14;;;;;;;5.67;5.00;;;10.80;99.90;;;;;;5057713;28;20469;-76
2022/04/28 05:27:42;;;;;;;5.90;5.30;;;10.90;99.90;;;;;;5053851;28;20472;-75
2022/04/28 05:30:11;;;;;;;6.07;5.27;;;11.20;99.90;;;;;;5057376;28;20474;-76
2022/04/28 05:32:41;;;;;;;5.83;5.07;;;11.00;99.90;;;;;;5055395;28;20481;-76
2022/04/28 05:35:09;;;;;;;5.57;4.33;;;11.00;99.90;;;;;;5051031;28;20460;-76
2022/04/28 05:37:37;;;;;;;7.90;5.47;;;11.10;99.90;;;;;;5057877;28;20473;-75
2022/04/28 05:40:07;;;;;;;9.53;6.67;;;11.30;99.90;;;;;;5058851;28;21006;-77
2022/04/28 05:48:09;;;;;;;7.70;5.90;;;11.20;99.90;;;;;;5061842;28;21025;-76
2022/04/28 05:50:39;;;;;;;5.90;5.30;;;11.20;99.90;;;;;;5059587;28;20459;-76
2022/04/28 05:53:07;;;;;;;5.80;5.20;;;11.30;99.90;;;;;;5062414;28;20563;-77
2022/04/28 05:55:35;;;;;;;7.33;6.13;;;11.40;99.90;;;;;;5057981;28;20503;-76
2022/04/28 05:58:04;;;;;;;7.23;6.13;;;11.40;99.90;;;;;;5063846;28;20459;-75
2022/04/28 06:00:33;;;;;;;8.83;6.57;;;11.50;99.90;;;;;;5065767;28;20537;-76
2022/04/28 06:03:01;;;;;;;7.33;5.50;;;11.60;99.90;;;;;;5064000;28;20852;-76
2022/04/28 06:05:31;;;;;;;11.30;6.17;;;11.70;99.90;;;;;;5061941;28;20451;-76
2022/04/28 06:08:00;;;;;;;9.73;6.63;;;11.70;99.90;;;;;;5064152;28;20457;-75
2022/04/28 06:10:28;;;;;;;5.83;4.83;;;11.80;99.90;;;;;;5058985;28;21052;-74
2022/04/28 06:12:56;;;;;;;7.70;5.70;;;11.90;99.90;;;;;;5059657;28;20558;-76
2022/04/28 06:15:24;;;;;;;7.33;5.73;;;12.00;99.90;;;;;;5057220;28;22450;-77
2022/04/28 06:17:58;;;;;;;6.13;5.23;;;12.10;99.90;;;;;;5061418;28;20541;-76
2022/04/28 06:20:26;;;;;;;9.17;6.03;;;12.20;99.90;;;;;;5061257;28;20472;-77
2022/04/28 06:22:56;;;;;;;6.80;5.60;;;12.40;99.90;;;;;;5059234;28;20463;-77
2022/04/28 06:25:24;;;;;;;7.53;5.20;;;12.70;99.90;;;;;;5058280;28;20477;-76
2022/04/28 06:27:53;;;;;;;6.50;3.80;;;12.90;99.90;;;;;;5059644;28;20456;-76
2022/04/28 06:30:22;;;;;;;5.07;3.70;;;13.20;99.90;;;;;;5060522;28;20528;-76
2022/04/28 06:32:50;;;;;;;5.37;4.00;;;13.50;99.90;;;;;;5058358;28;20480;-77
2022/04/28 06:35:18;;;;;;;4.63;3.73;;;13.70;99.90;;;;;;5060309;28;21014;-76
2022/04/28 06:37:46;;;;;;;4.30;3.40;;;14.00;99.90;;;;;;5060070;28;20451;-77
2022/04/28 06:40:17;;;;;;;4.17;3.77;;;14.10;99.90;;;;;;5060155;28;20484;-75
2022/04/28 06:42:49;;;;;;;3.40;2.77;;;14.40;99.90;;;;;;5060833;28;20449;-77
2022/04/28 06:45:18;;;;;;;5.10;3.27;;;14.60;99.90;;;;;;5055069;28;20459;-78
2022/04/28 06:47:46;;;;;;;4.47;3.10;;;14.80;99.90;;;;;;5059259;28;20461;-77
2022/04/28 06:50:14;;;;;;;2.77;2.50;;;14.90;99.90;;;;;;5056647;28;20474;-76
2022/04/28 06:52:43;;;;;;;4.67;2.50;;;15.10;99.90;;;;;;5057393;28;20452;-77
2022/04/28 06:55:11;;;;;;;3.30;2.97;;;15.30;99.90;;;;;;5060466;28;20520;-77
2022/04/28 06:57:41;;;;;;;3.40;3.10;;;15.50;99.90;;;;;;5058177;28;20454;-77
2022/04/28 07:00:10;;;;;;;2.73;2.50;;;15.80;99.90;;;;;;5056591;28;20484;-77
2022/04/28 07:02:39;;;;;;;3.13;2.20;;;16.00;99.90;;;;;;5059465;28;20462;-79
2022/04/28 07:05:08;;;;;;;2.57;2.37;;;16.20;99.90;;;;;;5058211;28;21034;-77
2022/04/28 07:07:36;;;;;;;4.77;2.10;;;16.30;99.90;;;;;;5059731;28;20455;-75
2022/04/28 07:10:06;;;;;;;3.10;2.47;;;16.50;99.90;;;;;;5060982;28;20561;-76
2022/04/28 07:12:34;;;;;;;2.30;1.90;;;16.60;99.90;;;;;;5056680;28;20813;-77
2022/04/28 07:15:04;;;;;;;2.63;2.43;;;16.90;99.90;;;;;;5057286;28;20475;-77
2022/04/28 07:17:32;;;;;;;3.03;2.47;;;16.80;99.90;;;;;;5057736;28;20467;-77
2022/04/28 07:20:01;;;;;;;2.63;2.33;;;17.00;99.90;;;;;;5060005;28;20503;-78
2022/04/28 07:22:29;;;;;;;2.83;1.97;;;17.10;99.90;;;;;;5058647;28;20453;-77
2022/04/28 07:24:57;;;;;;;3.37;2.10;;;17.20;99.90;;;;;;5057807;28;20604;-77
2022/04/28 07:27:25;;;;;;;2.70;2.33;;;17.30;99.90;;;;;;5057599;28;20857;-77
2022/04/28 07:29:53;;;;;;;3.40;3.00;;;17.40;99.90;;;;;;5057511;28;20472;-78
2022/04/28 07:32:23;;;;;;;4.03;3.73;;;17.50;99.90;;;;;;5057134;28;20945;-77
2022/04/28 07:34:51;;;;;;;4.07;2.80;;;17.50;99.90;;;;;;5059578;28;20483;-76
2022/04/28 07:37:19;;;;;;;4.33;2.37;;;17.50;99.90;;;;;;5055543;28;21245;-77
2022/04/28 07:39:47;;;;;;;2.30;2.10;;;17.50;99.90;;;;;;5055453;28;20480;-77
2022/04/28 07:42:15;;;;;;;3.30;3.00;;;17.50;99.90;;;;;;5057370;28;20464;-76
2022/04/28 07:44:44;;;;;;;1.90;1.80;;;17.40;99.90;;;;;;5058475;28;20469;-77
2022/04/28 07:47:12;;;;;;;7.53;3.10;;;17.40;99.90;;;;;;5058650;28;20602;-77
2022/04/28 07:49:41;;;;;;;2.20;2.00;;;17.30;98.70;;;;;;5054951;28;20484;-77
2022/04/28 07:52:10;;;;;;;4.30;2.80;;;17.20;98.60;;;;;;5056839;28;20824;-77
2022/04/28 07:54:38;;;;;;;2.60;2.33;;;17.10;95.30;;;;;;5055835;28;21019;-77
2022/04/28 07:57:07;;;;;;;2.53;2.20;;;17.10;96.40;;;;;;5061648;28;20455;-77
2022/04/28 07:59:35;;;;;;;2.87;2.13;;;17.00;94.50;;;;;;5053380;28;20476;-77
2022/04/28 08:02:04;;;;;;;2.40;2.20;;;17.10;95.90;;;;;;5056007;28;20473;-77
2022/04/28 08:04:33;;;;;;;2.87;2.67;;;17.10;93.20;;;;;;5060856;28;20439;-77
2022/04/28 08:07:03;;;;;;;4.70;2.60;;;17.10;92.80;;;;;;5057980;28;20458;-77
2022/04/28 08:09:31;;;;;;;2.77;2.57;;;16.80;88.30;;;;;;5054910;28;20856;-77
2022/04/28 08:12:06;;;;;;;4.23;2.17;;;16.80;92.30;;;;;;5056751;28;20453;-77
2022/04/28 08:14:34;;;;;;;2.93;2.47;;;16.80;94.10;;;;;;5055899;28;20471;-77
2022/04/28 08:17:03;;;;;;;2.87;2.40;;;16.90;93.70;;;;;;5059470;28;20459;-77
2022/04/28 08:19:33;;;;;;;2.57;2.37;;;17.00;92.30;;;;;;5059548;28;20478;-77
2022/04/28 08:22:03;;;;;;;2.57;2.27;;;17.00;93.60;;;;;;5055876;28;20450;-77
2022/04/28 08:24:31;;;;;;;3.60;2.20;;;17.00;95.40;;;;;;5053507;28;20445;-77
2022/04/28 08:27:00;;;;;;;3.10;2.30;;;17.10;96.40;;;;;;5057298;28;20456;-77
2022/04/28 08:29:28;;;;;;;2.87;2.67;;;17.10;93.30;;;;;;5055603;28;20540;-78
2022/04/28 08:31:56;;;;;;;2.40;2.20;;;17.00;88.90;;;;;;5056127;28;20460;-76
2022/04/28 08:34:25;;;;;;;2.70;2.50;;;17.00;87.80;;;;;;5061942;28;20482;-76
2022/04/28 08:36:53;;;;;;;2.37;2.13;;;17.00;90.10;;;;;;5056382;28;20972;-76
2022/04/28 08:39:23;;;;;;;4.07;2.30;;;17.00;90.30;;;;;;5056195;28;20510;-77
2022/04/28 08:41:53;;;;;;;2.20;1.93;;;16.70;82.40;;;;;;5057301;28;20456;-77
2022/04/28 08:44:23;;;;;;;2.27;2.10;;;16.80;87.00;;;;;;5058565;28;20482;-77
2022/04/28 08:46:54;;;;;;;2.90;2.60;;;16.80;89.30;;;;;;5053359;28;20434;-77
2022/04/28 08:49:24;;;;;;;3.20;2.33;;;16.90;80.60;;;;;;5056192;28;21165;-77
2022/04/28 08:51:54;;;;;;;2.20;2.00;;;17.00;78.90;;;;;;5056733;28;20455;-77
2022/04/28 08:54:25;;;;;;;2.80;2.60;;;16.90;75.00;;;;;;5054236;28;21025;-77
2022/04/28 08:56:55;;;;;;;3.63;2.67;;;16.70;70.60;;;;;;5074930;28;20883;-76
2022/04/28 08:59:24;;;;;;;3.10;2.00;;;16.60;64.00;;;;;;5061034;28;20468;-76
2022/04/28 09:01:52;;;;;;;2.80;2.00;;;16.60;69.60;;;;;;5057899;28;21246;-77
2022/04/28 09:04:22;;;;;;;4.63;3.40;;;16.80;77.00;;;;;;5054815;28;20491;-76
2022/04/28 09:06:52;;;;;;;4.30;2.23;;;16.80;73.20;;;;;;5061011;28;20555;-77
2022/04/28 09:09:21;;;;;;;2.83;2.63;;;16.80;75.50;;;;;;5055254;28;20467;-78
2022/04/28 09:11:53;;;;;;;3.20;2.20;;;17.00;73.10;;;;;;5060328;28;21060;-78
2022/04/28 09:14:23;;;;;;;2.37;1.60;;;17.00;73.40;;;;;;5058414;28;20851;-78
2022/04/28 09:16:52;;;;;;;12.83;3.80;;;17.10;78.10;;;;;;5060435;28;20568;-79
2022/04/28 09:19:23;;;;;;;2.33;1.80;;;17.20;83.20;;;;;;5059563;28;20482;-78
2022/04/28 09:21:53;;;;;;;1.60;1.50;;;17.30;86.60;;;;;;5063110;28;20484;-78
2022/04/28 09:24:22;;;;;;;2.03;1.80;;;17.40;79.60;;;;;;5060471;28;20475;-78
2022/04/28 09:26:53;;;;;;;2.00;1.80;;;17.40;69.70;;;;;;5060288;28;20462;-78
2022/04/28 09:29:23;;;;;;;2.20;2.00;;;17.40;68.30;;;;;;5056271;28;20475;-78
2022/04/28 09:31:53;;;;;;;3.00;2.40;;;17.40;69.50;;;;;;5061028;28;20459;-77
2022/04/28 09:34:47;;;;;;;2.50;2.13;;;17.40;59.00;;;;;;5058281;28;20535;-77
2022/04/28 09:37:17;;;;;;;4.40;1.93;;;17.40;62.50;;;;;;5059738;28;20955;-77
2022/04/28 09:42:39;;;;;;;2.40;2.20;;;17.50;67.00;;;;;;5063629;28;20454;-77
2022/04/28 09:45:09;;;;;;;2.50;1.67;;;17.50;56.70;;;;;;5061205;28;20449;-78
2022/04/28 09:47:37;;;;;;;2.00;1.90;;;17.50;60.00;;;;;;5061718;28;20842;-78
2022/04/28 09:50:13;;;;;;;1.70;1.53;;;17.50;57.20;;;;;;5057330;28;20503;-78
2022/04/28 09:52:44;;;;;;;1.73;1.63;;;17.50;55.90;;;;;;5062502;28;20444;-77
2022/04/28 09:55:15;;;;;;;2.00;1.60;;;17.60;57.50;;;;;;5060659;28;20570;-77
2022/04/28 09:57:45;;;;;;;3.77;2.00;;;17.70;63.00;;;;;;5060512;28;21247;-78
2022/04/28 10:00:14;;;;;;;2.30;1.63;;;17.80;56.30;;;;;;5056979;28;20488;-77
2022/04/28 10:02:43;;;;;;;2.73;2.07;;;17.70;49.20;;;;;;5060118;28;20461;-78
2022/04/28 10:05:14;;;;;;;1.73;1.53;;;17.60;48.90;;;;;;5059713;28;20464;-77
2022/04/28 10:07:43;;;;;;;1.80;1.67;;;17.70;47.70;;;;;;5059568;28;20508;-78
2022/04/28 10:10:11;;;;;;;3.90;2.10;;;17.70;48.90;;;;;;5058403;28;20489;-78
2022/04/28 10:12:41;;;;;;;1.70;1.60;;;17.60;46.20;;;;;;5053434;28;20466;-77
2022/04/28 10:15:13;;;;;;;2.30;2.10;;;17.70;47.60;;;;;;5058390;28;20486;-76
2022/04/28 10:17:46;;;;;;;1.53;1.43;;;17.60;42.10;;;;;;5054379;28;20524;-77
2022/04/28 10:20:20;;;;;;;1.80;1.70;;;17.60;43.80;;;;;;5058612;28;20478;-75
2022/04/28 10:23:10;;;;;;;2.73;1.73;;;17.60;41.40;;;;;;5055378;28;20461;-76
2022/04/28 10:34:13;;;;;;;1.40;1.30;;;17.50;37.90;;;;;;5052159;28;21063;-76
2022/04/28 10:36:52;;;;;;;3.30;2.00;;;17.50;40.10;;;;;;5053125;28;20490;-77
2022/04/28 10:39:39;;;;;;;2.00;1.80;;;17.60;40.60;;;;;;5055563;28;20477;-77
2022/04/28 10:42:14;;;;;;;2.90;2.20;;;17.70;44.70;;;;;;5050556;28;20504;-76
2022/04/28 10:44:54;;;;;;;2.00;1.77;;;17.80;43.50;;;;;;5059295;28;20451;-76
2022/04/28 10:47:29;;;;;;;1.73;1.63;;;17.90;44.90;;;;;;5058767;28;20461;-77
2022/04/28 10:49:58;;;;;;;2.17;1.97;;;18.00;48.00;;;;;;5056919;28;20502;-76
2022/04/28 10:52:27;;;;;;;2.27;2.00;;;18.00;46.80;;;;;;5060329;28;20451;-76
2022/04/28 10:55:00;;;;;;;4.13;2.17;;;18.00;43.90;;;;;;5058031;28;20507;-77
2022/04/28 10:57:30;;;;;;;2.10;1.90;;;17.80;40.50;;;;;;5055950;28;20572;-76
2022/04/28 11:00:00;;;;;;;1.97;1.70;;;17.80;43.00;;;;;;5057140;28;20474;-76
2022/04/28 11:02:58;;;;;;;2.80;2.43;;;17.80;38.90;;;;;;5057503;28;20984;-78
2022/04/28 11:05:40;;;;;;;2.50;1.93;;;17.60;35.30;;;;;;5052509;28;20469;-77
2022/04/28 11:08:25;;;;;;;4.20;1.77;;;17.70;39.00;;;;;;5060473;28;20457;-77
2022/04/28 11:11:12;;;;;;;4.40;1.73;;;17.80;43.10;;;;;;5058584;28;21433;-77
2022/04/28 11:13:53;;;;;;;2.13;1.93;;;17.90;40.70;;;;;;5052998;28;20915;-77
2022/04/28 11:16:28;;;;;;;3.20;2.13;;;17.70;36.40;;;;;;5052439;28;20572;-77
2022/04/28 11:18:58;;;;;;;2.70;1.87;;;17.70;37.70;;;;;;5046017;28;20525;-77
2022/04/28 11:21:27;;;;;;;1.93;1.83;;;17.90;37.60;;;;;;5057518;28;20454;-78
2022/04/28 11:23:57;;;;;;;1.83;1.73;;;17.80;38.30;;;;;;5058892;28;20981;-77
2022/04/28 11:26:28;;;;;;;1.50;1.30;;;17.90;43.50;;;;;;5055645;28;20536;-77
2022/04/28 11:28:57;;;;;;;2.10;1.90;;;18.10;47.60;;;;;;5057864;28;20470;-77
2022/04/28 11:31:25;;;;;;;2.70;1.50;;;18.10;43.60;;;;;;5057900;28;20463;-77
2022/04/28 11:33:57;;;;;;;3.80;2.93;;;18.20;57.90;;;;;;5059418;28;20451;-77
2022/04/28 11:36:27;;;;;;;1.90;1.70;;;18.30;42.20;;;;;;5054749;28;20482;-77
2022/04/28 11:38:58;;;;;;;2.70;1.57;;;18.30;58.70;;;;;;5089206;28;20538;-77
2022/04/28 11:41:32;;;;;;;2.23;1.50;;;18.50;50.00;;;;;;5051837;28;20447;-77
2022/04/28 11:44:07;;;;;;;1.60;1.50;;;18.70;43.30;;;;;;5067535;28;20465;-76
2022/04/28 11:46:37;;;;;;;2.10;1.90;;;18.40;41.30;;;;;;5061100;28;20446;-77
2022/04/28 11:49:06;;;;;;;2.23;1.70;;;18.30;43.10;;;;;;5060108;28;20471;-77
2022/04/28 11:51:36;;;;;;;1.60;1.40;;;18.50;51.30;;;;;;5058642;28;20459;-77
2022/04/28 11:54:05;;;;;;;1.83;1.73;;;18.70;50.50;;;;;;5058951;28;20457;-76
2022/04/28 11:56:35;;;;;;;1.97;1.63;;;18.60;44.30;;;;;;5059334;28;20474;-77
2022/04/28 11:59:05;;;;;;;2.00;1.90;;;18.50;43.90;;;;;;5059095;28;20483;-76
2022/04/28 12:01:35;;;;;;;1.50;1.40;;;18.60;43.30;;;;;;5058375;28;20456;-77
2022/04/28 12:04:06;;;;;;;1.70;1.60;;;18.70;45.40;;;;;;5060969;28;20458;-77
2022/04/28 12:06:34;;;;;;;1.93;1.73;;;18.70;47.50;;;;;;5058868;28;20455;-77
2022/04/28 12:14:22;;;;;;;1.60;1.50;;;18.60;42.60;;;;;;5062494;28;20532;-77
2022/04/28 12:14:41;;;;;;;2.20;2.00;;;18.20;35.80;;;;;;5057153;28;20469;-76
2022/04/28 12:19:59;;;;;;;1.60;1.50;;;18.30;41.70;;;;;;5058180;28;20537;-77
2022/04/28 12:22:35;;;;;;;2.20;1.50;;;18.50;42.30;;;;;;5059171;28;20479;-77
2022/04/28 12:25:09;;;;;;;1.87;1.77;;;18.60;42.60;;;;;;5062412;28;20984;-76
2022/04/28 12:27:39;;;;;;;2.30;1.77;;;18.70;43.90;;;;;;5055321;28;20452;-78
2022/04/28 12:30:10;;;;;;;1.50;1.40;;;18.70;45.80;;;;;;5058216;28;20474;-77
2022/04/28 12:32:44;;;;;;;1.73;1.60;;;18.80;48.40;;;;;;5054290;28;21269;-77
2022/04/28 12:35:25;;;;;;;1.60;1.50;;;18.90;51.50;;;;;;5052715;28;20454;-79
2022/04/28 12:37:58;;;;;;;1.90;1.80;;;19.00;46.50;;;;;;5056479;28;20502;-78
2022/04/28 12:40:28;;;;;;;2.63;1.70;;;18.90;44.30;;;;;;5055171;28;20470;-77
2022/04/28 12:42:57;;;;;;;1.43;1.33;;;18.90;45.70;;;;;;5058372;28;20454;-77
2022/04/28 12:45:47;;;;;;;1.83;1.73;;;19.00;47.50;;;;;;5055282;28;20459;-77
2022/04/28 12:48:30;;;;;;;2.20;2.00;;;19.00;45.60;;;;;;5063533;28;20961;-76
2022/04/28 12:51:11;;;;;;;2.40;2.10;;;19.00;43.90;;;;;;5058173;28;20477;-77
2022/04/28 12:53:40;;;;;;;1.90;1.70;;;18.80;41.50;;;;;;5062687;28;20458;-78
2022/04/28 12:56:10;;;;;;;2.13;1.93;;;18.80;42.20;;;;;;5062380;28;20478;-78
2022/04/28 12:58:40;;;;;;;2.43;2.00;;;18.80;42.10;;;;;;5061222;28;20450;-77
2022/04/28 13:01:13;;;;;;;4.40;2.07;;;18.80;41.50;;;;;;5059987;28;20812;-77
2022/04/28 13:03:42;;;;;;;2.00;1.83;;;18.80;41.00;;;;;;5061729;28;22743;-77
2022/04/28 13:06:12;;;;;;;1.77;1.67;;;18.90;46.10;;;;;;5062457;28;20578;-76
2022/04/28 13:08:44;;;;;;;1.50;1.40;;;19.10;47.60;;;;;;5061631;28;20598;-77
2022/04/28 13:11:12;;;;;;;1.70;1.60;;;19.20;49.40;;;;;;5060914;28;20467;-77
2022/04/28 13:13:40;;;;;;;1.73;1.60;;;19.20;45.50;;;;;;5062708;28;20519;-77
2022/04/28 13:16:09;;;;;;;1.73;1.63;;;19.20;44.90;;;;;;5060852;28;20462;-76
2022/04/28 13:18:37;;;;;;;2.70;1.80;;;19.30;49.50;;;;;;5059084;28;20973;-77
2022/04/28 13:21:07;;;;;;;2.20;1.63;;;19.30;48.70;;;;;;5059965;28;20446;-77
2022/04/28 13:23:37;;;;;;;1.67;1.57;;;19.40;47.90;;;;;;5059725;28;20457;-77
2022/04/28 13:26:05;;;;;;;2.20;1.53;;;19.30;44.10;;;;;;5057616;28;20462;-76
2022/04/28 13:28:33;;;;;;;2.73;1.60;;;19.30;45.80;;;;;;5059310;28;20481;-80
2022/04/28 13:31:02;;;;;;;1.53;1.43;;;19.40;51.10;;;;;;5060868;28;20465;-80
2022/04/28 13:33:30;;;;;;;1.60;1.50;;;19.40;50.50;;;;;;5060881;28;20451;-80
2022/04/28 13:35:58;;;;;;;2.23;2.03;;;19.50;50.10;;;;;;5059967;28;20463;-79
2022/04/28 13:38:27;;;;;;;2.23;1.43;;;19.50;50.10;;;;;;5059923;28;20486;-80
2022/04/28 13:40:57;;;;;;;1.70;1.40;;;19.60;53.00;;;;;;5060256;28;20474;-80